createdAt,value
2018-03-18T00:01:22.478Z,16.33
2018-03-18T00:03:49.503Z,16.48
2018-03-18T00:06:15.756Z,15.70
2018-03-18T00:08:42.358Z,15.23
2018-03-18T00:11:08.586Z,16.35
2018-03-18T00:13:34.814Z,16.00
2018-03-18T00:16:01.766Z,16.30
2018-03-18T00:18:28.760Z,16.08
2018-03-18T00:20:54.972Z,17.42
2018-03-18T00:23:23.604Z,15.50
2018-03-18T00:25:49.880Z,16.42
2018-03-18T00:28:16.088Z,16.35
2018-03-18T00:30:42.341Z,15.00
2018-03-18T00:33:08.539Z,15.77
2018-03-18T00:35:34.796Z,18.17
2018-03-18T00:38:01.024Z,15.48
2018-03-18T00:40:27.266Z,16.35
2018-03-18T00:42:53.475Z,16.30
2018-03-18T00:45:20.418Z,16.37
2018-03-18T00:47:46.632Z,17.62
2018-03-18T00:50:13.592Z,17.42
2018-03-18T00:52:39.847Z,18.58
2018-03-18T00:55:06.062Z,17.02
2018-03-18T00:57:32.304Z,16.08
2018-03-18T00:59:58.508Z,17.10
2018-03-18T01:02:24.740Z,17.30
2018-03-18T01:04:51.753Z,17.45
2018-03-18T01:07:17.959Z,16.15
2018-03-18T01:09:44.186Z,15.73
2018-03-18T01:12:10.444Z,17.87
2018-03-18T01:14:36.676Z,18.77
2018-03-18T01:17:02.902Z,17.00
2018-03-18T01:19:29.869Z,15.85
2018-03-18T01:21:56.080Z,16.58
2018-03-18T01:24:22.329Z,17.12
2018-03-18T01:26:49.351Z,17.08
2018-03-18T01:29:15.605Z,15.80
2018-03-18T01:31:41.858Z,17.60
2018-03-18T01:34:08.092Z,17.52
2018-03-18T01:36:34.324Z,17.48
2018-03-18T01:39:00.559Z,16.83
2018-03-18T01:41:26.780Z,17.23
2018-03-18T01:43:52.984Z,17.23
2018-03-18T01:46:19.969Z,17.02
2018-03-18T01:48:46.203Z,17.17
2018-03-18T01:51:12.411Z,17.10
2018-03-18T01:53:38.630Z,17.27
2018-03-18T01:56:04.857Z,16.25
2018-03-18T01:58:31.069Z,17.98
2018-03-18T02:00:57.285Z,17.52
2018-03-18T02:03:24.236Z,18.30
2018-03-18T02:05:51.269Z,17.95
2018-03-18T02:08:17.466Z,16.12
2018-03-18T02:10:43.694Z,17.95
2018-03-18T02:13:09.924Z,17.37
2018-03-18T02:15:36.188Z,17.45
2018-03-18T02:18:02.422Z,18.45
2018-03-18T02:20:28.638Z,17.45
2018-03-18T02:22:55.623Z,15.93
2018-03-18T02:25:22.504Z,18.02
2018-03-18T02:27:48.716Z,16.42
2018-03-18T02:30:14.940Z,17.17
2018-03-18T02:32:41.885Z,16.25
2018-03-18T02:35:08.863Z,16.37
2018-03-18T02:37:35.075Z,18.25
2018-03-18T02:40:02.053Z,16.37
2018-03-18T02:42:28.281Z,17.50
2018-03-18T02:44:55.250Z,16.30
2018-03-18T02:47:21.493Z,18.08
2018-03-18T02:49:48.433Z,17.67
2018-03-18T02:52:15.391Z,17.73
2018-03-18T02:54:42.369Z,15.93
2018-03-18T02:57:08.560Z,15.80
2018-03-18T02:59:34.776Z,15.70
2018-03-18T03:02:01.038Z,16.95
2018-03-18T03:04:27.798Z,17.42
2018-03-18T03:06:55.288Z,18.62
2018-03-18T03:09:21.659Z,16.50
2018-03-18T03:11:47.872Z,16.30
2018-03-18T03:14:14.087Z,15.40
2018-03-18T03:16:40.352Z,15.00
2018-03-18T03:19:06.574Z,17.77
2018-03-18T03:21:32.814Z,15.60
2018-03-18T03:23:59.020Z,14.25
2018-03-18T03:26:25.228Z,15.10
2018-03-18T03:28:52.206Z,16.48
2018-03-18T03:31:18.437Z,16.02
2018-03-18T03:33:44.700Z,17.12
2018-03-18T03:36:10.913Z,15.60
2018-03-18T03:38:37.884Z,16.48
2018-03-18T03:41:04.106Z,15.85
2018-03-18T03:43:31.048Z,16.37
2018-03-18T03:45:57.294Z,16.02
2018-03-18T03:48:24.251Z,17.25
2018-03-18T03:50:51.216Z,14.77
2018-03-18T03:53:18.178Z,16.33
2018-03-18T03:55:45.152Z,16.55
2018-03-18T03:58:11.357Z,16.80
2018-03-18T04:00:38.355Z,15.35
2018-03-18T04:03:04.590Z,15.70
2018-03-18T04:05:30.864Z,15.85
2018-03-18T04:07:57.112Z,16.08
2018-03-18T04:10:23.322Z,15.43
2018-03-18T04:12:49.535Z,14.38
2018-03-18T04:15:16.506Z,17.83
2018-03-18T04:17:42.723Z,14.40
2018-03-18T04:20:09.700Z,17.92
2018-03-18T04:22:35.915Z,15.80
2018-03-18T04:25:02.473Z,15.38
2018-03-18T04:27:29.426Z,15.48
2018-03-18T04:29:56.383Z,14.68
2018-03-18T04:32:23.353Z,16.87
2018-03-18T04:34:50.295Z,16.33
2018-03-18T04:37:17.281Z,15.00
2018-03-18T04:39:43.517Z,14.82
2018-03-18T04:42:09.745Z,15.70
2018-03-18T04:44:36.704Z,16.05
2018-03-18T04:47:03.670Z,15.05
2018-03-18T04:49:29.881Z,14.87
2018-03-18T04:51:56.137Z,15.90
2018-03-18T04:54:22.349Z,15.18
2018-03-18T04:56:48.573Z,16.40
2018-03-18T04:59:14.815Z,14.98
2018-03-18T05:01:41.027Z,13.90
2018-03-18T05:04:07.249Z,14.30
2018-03-18T05:06:33.523Z,16.12
2018-03-18T05:09:00.012Z,16.02
2018-03-18T05:11:26.207Z,16.17
2018-03-18T05:13:52.427Z,14.45
2018-03-18T05:16:18.679Z,15.68
2018-03-18T05:18:44.889Z,14.60
2018-03-18T05:21:11.858Z,16.50
2018-03-18T05:23:38.051Z,14.70
2018-03-18T05:26:04.295Z,15.27
2018-03-18T05:28:30.507Z,14.77
2018-03-18T05:30:57.087Z,13.10
2018-03-18T05:33:23.302Z,16.37
2018-03-18T05:35:49.527Z,14.52
2018-03-18T05:38:15.786Z,14.25
2018-03-18T05:40:41.994Z,12.60
2018-03-18T05:43:08.210Z,14.60
2018-03-18T05:45:35.158Z,15.38
2018-03-18T05:48:02.158Z,14.95
2018-03-18T05:50:28.373Z,14.98
2018-03-18T05:52:55.614Z,15.65
2018-03-18T05:55:21.838Z,12.80
2018-03-18T05:57:48.076Z,14.90
2018-03-18T06:00:14.304Z,11.85
2018-03-18T06:02:40.537Z,13.50
2018-03-18T06:05:06.789Z,13.88
2018-03-18T06:07:33.025Z,13.10
2018-03-18T06:09:59.259Z,13.50
2018-03-18T06:12:25.469Z,12.50
2018-03-18T06:14:51.702Z,13.30
2018-03-18T06:17:18.664Z,13.62
2018-03-18T06:19:44.921Z,13.60
2018-03-18T06:22:11.162Z,12.98
2018-03-18T06:24:37.764Z,12.50
2018-03-18T06:27:04.187Z,13.48
2018-03-18T06:29:30.405Z,13.80
2018-03-18T06:31:56.641Z,12.07
2018-03-18T06:34:22.893Z,12.48
2018-03-18T06:36:49.129Z,12.40
2018-03-18T06:39:15.351Z,12.02
2018-03-18T06:41:41.583Z,12.82
2018-03-18T06:44:07.821Z,13.62
2018-03-18T06:46:34.020Z,13.43
2018-03-18T06:49:00.229Z,12.40
2018-03-18T06:51:26.465Z,13.60
2018-03-18T06:53:52.687Z,12.82
2018-03-18T06:56:18.919Z,12.80
2018-03-18T06:58:45.151Z,14.45
2018-03-18T07:01:12.137Z,13.93
2018-03-18T07:03:38.337Z,14.05
2018-03-18T07:06:05.301Z,13.23
2018-03-18T07:08:32.308Z,12.18
2018-03-18T07:10:58.517Z,14.07
2018-03-18T07:13:24.753Z,12.70
2018-03-18T07:15:50.980Z,12.55
2018-03-18T07:18:17.961Z,11.18
2018-03-18T07:20:44.221Z,13.38
2018-03-18T07:23:10.443Z,12.85
2018-03-18T07:25:36.696Z,12.80
2018-03-18T07:28:02.933Z,12.18
2018-03-18T07:30:29.172Z,11.73
2018-03-18T07:32:55.412Z,13.60
2018-03-18T07:35:21.654Z,13.05
2018-03-18T07:37:47.884Z,12.32
2018-03-18T07:40:14.091Z,11.57
2018-03-18T07:42:40.313Z,11.00
2018-03-18T07:45:06.508Z,11.00
2018-03-18T07:47:32.811Z,10.60
2018-03-18T07:49:59.024Z,12.60
2018-03-18T07:52:25.240Z,12.60
2018-03-18T07:54:51.483Z,12.50
2018-03-18T07:57:17.694Z,12.43
2018-03-18T07:59:44.659Z,12.82
2018-03-18T08:02:10.893Z,11.77
2018-03-18T08:04:37.860Z,12.05
2018-03-18T08:07:04.081Z,12.75
2018-03-18T08:09:31.013Z,11.77
2018-03-18T08:11:57.268Z,12.32
2018-03-18T08:14:23.482Z,11.93
2018-03-18T08:16:49.729Z,11.95
2018-03-18T08:19:15.953Z,12.10
2018-03-18T08:21:42.200Z,13.02
2018-03-18T08:24:08.416Z,11.98
2018-03-18T08:26:34.625Z,12.07
2018-03-18T08:29:01.600Z,13.30
2018-03-18T08:31:27.847Z,13.27
2018-03-18T08:33:54.101Z,13.13
2018-03-18T08:36:21.081Z,12.35
2018-03-18T08:38:47.653Z,12.30
2018-03-18T08:41:13.857Z,11.18
2018-03-18T08:43:40.108Z,11.63
2018-03-18T08:46:06.355Z,12.90
2018-03-18T08:48:32.563Z,13.02
2018-03-18T08:50:58.807Z,13.05
2018-03-18T08:53:25.046Z,12.70
2018-03-18T08:55:51.267Z,11.75
2018-03-18T08:58:17.500Z,12.43
2018-03-18T09:00:43.759Z,13.45
2018-03-18T09:03:10.035Z,11.95
2018-03-18T09:05:37.761Z,12.77
2018-03-18T09:08:04.003Z,11.30
2018-03-18T09:10:30.223Z,12.90
2018-03-18T09:12:57.203Z,13.23
2018-03-18T09:15:23.437Z,13.70
2018-03-18T09:17:49.683Z,11.65
2018-03-18T09:20:15.939Z,11.77
2018-03-18T09:22:42.168Z,13.38
2018-03-18T09:25:08.434Z,13.45
2018-03-18T09:27:34.673Z,12.90
2018-03-18T09:30:00.889Z,13.00
2018-03-18T09:32:27.147Z,13.57
2018-03-18T09:34:53.363Z,14.13
2018-03-18T09:37:19.639Z,13.13
2018-03-18T09:39:45.871Z,11.65
2018-03-18T09:42:12.113Z,12.32
2018-03-18T09:44:38.369Z,13.07
2018-03-18T09:47:04.593Z,13.07
2018-03-18T09:49:30.812Z,12.68
2018-03-18T09:51:57.039Z,14.40
2018-03-18T09:54:24.020Z,13.23
2018-03-18T09:56:50.267Z,13.18
2018-03-18T09:59:16.502Z,12.35
2018-03-18T10:01:42.726Z,12.98
2018-03-18T10:04:08.973Z,12.75
2018-03-18T10:06:35.226Z,12.07
2018-03-18T10:09:01.481Z,13.55
2018-03-18T10:11:27.731Z,13.48
2018-03-18T10:13:53.981Z,13.23
2018-03-18T10:16:20.239Z,12.75
2018-03-18T10:18:46.465Z,13.25
2018-03-18T10:21:12.728Z,12.00
2018-03-18T10:23:39.703Z,13.32
2018-03-18T10:26:05.946Z,15.27
2018-03-18T10:28:33.894Z,14.52
2018-03-18T10:31:00.133Z,14.98
2018-03-18T10:33:26.403Z,13.65
2018-03-18T10:35:53.409Z,13.40
2018-03-18T10:38:19.645Z,14.50
2018-03-18T10:40:45.896Z,13.10
2018-03-18T10:43:12.122Z,14.45
2018-03-18T10:45:38.370Z,13.00
2018-03-18T10:48:04.614Z,13.70
2018-03-18T10:50:30.832Z,12.52
2018-03-18T10:52:57.108Z,13.85
2018-03-18T10:55:23.356Z,15.85
2018-03-18T10:57:49.648Z,15.52
2018-03-18T11:00:19.952Z,13.13
2018-03-18T11:02:47.012Z,13.85
2018-03-18T11:05:14.061Z,13.73
2018-03-18T11:07:40.284Z,13.98
2018-03-18T11:10:06.532Z,13.52
2018-03-18T11:12:32.756Z,13.85
2018-03-18T11:14:59.005Z,12.75
2018-03-18T11:17:25.227Z,13.02
2018-03-18T11:19:51.484Z,14.27
2018-03-18T11:22:17.739Z,13.43
2018-03-18T11:24:43.951Z,14.07
2018-03-18T11:27:10.291Z,14.10
2018-03-18T11:29:36.559Z,12.10
2018-03-18T11:32:02.912Z,14.25
2018-03-18T11:34:29.945Z,14.13
2018-03-18T11:36:56.241Z,11.63
2018-03-18T11:39:22.447Z,14.27
2018-03-18T11:41:48.681Z,15.88
2018-03-18T11:44:14.928Z,14.95
2018-03-18T11:46:41.209Z,14.27
2018-03-18T11:49:07.476Z,13.65
2018-03-18T11:51:33.715Z,13.13
2018-03-18T11:53:59.953Z,13.73
2018-03-18T11:56:26.196Z,13.07
2018-03-18T11:58:52.495Z,13.10
2018-03-18T12:01:18.701Z,14.25
2018-03-18T12:03:44.963Z,13.02
2018-03-18T12:06:12.091Z,13.90
2018-03-18T12:08:59.114Z,12.93
2018-03-18T12:11:25.397Z,12.55
2018-03-18T12:13:52.381Z,14.70
2018-03-18T12:16:18.701Z,13.50
2018-03-18T12:18:45.680Z,13.00
2018-03-18T12:21:11.960Z,13.98
2018-03-18T12:23:38.318Z,13.93
2018-03-18T12:26:04.558Z,13.50
2018-03-18T12:28:30.801Z,14.05
2018-03-18T12:30:57.022Z,13.00
2018-03-18T12:33:23.307Z,14.30
2018-03-18T12:35:50.389Z,12.95
2018-03-18T12:38:16.654Z,13.70
2018-03-18T12:40:52.048Z,14.93
2018-03-18T12:43:27.284Z,12.70
2018-03-18T12:45:53.614Z,15.15
2018-03-18T12:48:19.975Z,12.93
2018-03-18T12:50:46.220Z,13.68
2018-03-18T12:53:12.538Z,13.55
2018-03-18T12:55:38.822Z,14.35
2018-03-18T12:58:05.835Z,13.52
2018-03-18T13:00:32.836Z,13.95
2018-03-18T13:02:59.082Z,14.87
2018-03-18T13:05:26.150Z,14.95
2018-03-18T13:07:53.180Z,12.43
2018-03-18T13:10:19.422Z,13.62
2018-03-18T13:12:45.674Z,14.80
2018-03-18T13:15:11.968Z,13.75
2018-03-18T13:17:38.231Z,14.23
2018-03-18T13:20:04.602Z,14.02
2018-03-18T13:22:30.881Z,13.82
2018-03-18T13:24:57.147Z,14.63
2018-03-18T13:27:23.432Z,12.45
2018-03-18T13:29:50.449Z,14.93
2018-03-18T13:32:16.758Z,12.80
2018-03-18T13:34:43.007Z,13.35
2018-03-18T13:37:09.292Z,12.75
2018-03-18T13:39:35.550Z,13.68
2018-03-18T13:42:01.872Z,13.62
2018-03-18T13:44:28.110Z,13.25
2018-03-18T13:46:55.124Z,14.55
2018-03-18T13:49:21.390Z,14.70
2018-03-18T13:51:47.716Z,13.95
2018-03-18T13:54:13.987Z,13.55
2018-03-18T13:56:40.290Z,13.13
2018-03-18T13:59:06.581Z,14.68
2018-03-18T14:01:32.845Z,14.27
2018-03-18T14:03:59.845Z,16.40
2018-03-18T14:06:27.013Z,14.07
2018-03-18T14:08:53.332Z,12.15
2018-03-18T14:11:19.576Z,14.02
2018-03-18T14:13:45.874Z,14.80
2018-03-18T14:16:12.202Z,12.73
2018-03-18T14:18:38.469Z,12.68
2018-03-18T14:21:04.763Z,13.75
2018-03-18T14:23:31.011Z,13.62
2018-03-18T14:25:57.296Z,13.55
2018-03-18T14:28:24.291Z,13.60
2018-03-18T14:30:50.622Z,12.18
2018-03-18T14:33:16.925Z,14.90
2018-03-18T14:35:43.171Z,17.73
2018-03-18T14:38:09.428Z,17.60
2018-03-18T14:40:36.430Z,13.80
2018-03-18T14:43:02.695Z,15.65
2018-03-18T14:45:29.743Z,14.93
2018-03-18T14:47:56.047Z,14.05
2018-03-18T14:50:22.283Z,13.07
2018-03-18T14:52:48.585Z,12.43
2018-03-18T14:55:15.663Z,13.93
2018-03-18T14:57:41.974Z,12.95
2018-03-18T15:00:08.289Z,13.23
2018-03-18T15:02:34.607Z,12.85
2018-03-18T15:05:01.657Z,14.27
2018-03-18T15:07:28.726Z,13.43
2018-03-18T15:09:55.731Z,15.43
2018-03-18T15:12:22.543Z,17.37
2018-03-18T15:14:49.556Z,16.27
2018-03-18T15:17:15.853Z,14.57
2018-03-18T15:19:42.192Z,14.27
2018-03-18T15:22:08.468Z,13.75
2018-03-18T15:24:34.777Z,13.10
2018-03-18T15:27:02.111Z,14.00
2018-03-18T15:29:28.393Z,14.35
2018-03-18T15:31:54.702Z,13.95
2018-03-18T15:34:21.762Z,12.77
2018-03-18T15:36:48.756Z,14.20
2018-03-18T15:39:15.134Z,12.57
2018-03-18T15:41:41.410Z,12.80
2018-03-18T15:44:07.728Z,11.63
2018-03-18T15:46:34.012Z,13.02
2018-03-18T15:49:00.314Z,14.48
2018-03-18T15:51:26.770Z,12.48
2018-03-18T15:53:53.057Z,13.15
2018-03-18T15:56:19.402Z,13.02
2018-03-18T15:58:45.684Z,11.73
2018-03-18T16:01:12.687Z,15.00
2018-03-18T16:03:38.982Z,13.82
2018-03-18T16:06:05.260Z,13.93
2018-03-18T16:08:32.329Z,14.10
2018-03-18T16:10:58.659Z,14.82
2018-03-18T16:13:25.678Z,13.88
2018-03-18T16:15:52.002Z,11.55
2018-03-18T16:18:18.286Z,13.98
2018-03-18T16:20:44.600Z,13.18
2018-03-18T16:23:10.888Z,12.52
2018-03-18T16:25:37.907Z,12.77
2018-03-18T16:28:04.240Z,13.10
2018-03-18T16:30:42.682Z,13.32
2018-03-18T16:33:08.968Z,14.00
2018-03-18T16:35:35.368Z,12.65
2018-03-18T16:38:01.718Z,11.95
2018-03-18T16:40:28.633Z,12.75
2018-03-18T16:42:54.928Z,13.40
2018-03-18T16:45:21.311Z,13.45
2018-03-18T16:47:48.617Z,13.38
2018-03-18T16:50:15.049Z,13.68
2018-03-18T16:52:41.346Z,13.35
2018-03-18T16:55:07.669Z,13.48
2018-03-18T16:57:34.737Z,12.15
2018-03-18T17:00:02.389Z,13.07
2018-03-18T17:02:29.287Z,12.10
2018-03-18T17:04:58.020Z,13.95
2018-03-18T17:07:24.381Z,11.32
2018-03-18T17:09:51.517Z,12.65
2018-03-18T17:12:17.892Z,13.65
2018-03-18T17:14:44.221Z,12.93
2018-03-18T17:17:10.572Z,12.27
2018-03-18T17:19:37.027Z,12.20
2018-03-18T17:22:03.399Z,13.75
2018-03-18T17:24:30.442Z,13.90
2018-03-18T17:26:57.523Z,11.48
2018-03-18T17:29:23.895Z,13.10
2018-03-18T17:31:50.180Z,12.30
2018-03-18T17:34:16.507Z,12.85
2018-03-18T17:36:42.852Z,12.90
2018-03-18T17:39:10.060Z,12.30
2018-03-18T17:41:36.755Z,12.18
2018-03-18T17:44:03.363Z,12.93
2018-03-18T17:46:42.171Z,13.65
2018-03-18T17:49:20.944Z,13.88
2018-03-18T17:51:59.605Z,13.82
2018-03-18T17:54:38.218Z,12.27
2018-03-18T17:57:05.613Z,14.90
2018-03-18T17:59:31.933Z,13.00
2018-03-18T18:01:58.269Z,12.32
2018-03-18T18:04:24.650Z,12.40
2018-03-18T18:06:50.919Z,13.00
2018-03-18T18:09:18.070Z,12.25
2018-03-18T18:11:45.136Z,14.00
2018-03-18T18:14:12.213Z,13.05
2018-03-18T18:16:38.543Z,15.25
2018-03-18T18:19:05.611Z,13.50
2018-03-18T18:21:32.647Z,12.07
2018-03-18T18:23:58.958Z,14.25
2018-03-18T18:26:25.338Z,13.20
2018-03-18T18:28:53.182Z,12.57
2018-03-18T18:31:19.570Z,13.30
2018-03-18T18:33:46.653Z,13.18
2018-03-18T18:36:12.964Z,14.20
2018-03-18T18:38:39.283Z,14.02
2018-03-18T18:41:05.646Z,15.32
2018-03-18T18:43:31.957Z,13.82
2018-03-18T18:45:59.070Z,13.02
2018-03-18T18:48:25.677Z,13.50
2018-03-18T18:50:52.298Z,14.93
2018-03-18T18:53:18.654Z,13.82
2018-03-18T18:55:45.035Z,14.70
2018-03-18T18:58:11.693Z,12.85
2018-03-18T19:00:38.759Z,14.38
2018-03-18T19:03:05.857Z,13.13
2018-03-18T19:05:32.206Z,13.20
2018-03-18T19:07:58.538Z,14.10
2018-03-18T19:10:24.867Z,13.10
2018-03-18T19:12:51.177Z,13.02
2018-03-18T19:15:18.312Z,14.52
2018-03-18T19:17:44.589Z,13.48
2018-03-18T19:20:11.980Z,13.35
2018-03-18T19:22:38.320Z,13.18
2018-03-18T19:25:04.695Z,12.10
2018-03-18T19:27:31.030Z,12.13
2018-03-18T19:29:57.427Z,14.38
2018-03-18T19:32:24.514Z,14.48
2018-03-18T19:34:50.892Z,13.57
2018-03-18T19:37:17.238Z,14.10
2018-03-18T19:39:43.573Z,13.27
2018-03-18T19:42:10.803Z,13.75
2018-03-18T19:44:37.109Z,14.30
2018-03-18T19:47:03.460Z,15.05
2018-03-18T19:49:31.259Z,15.77
2018-03-18T19:51:57.644Z,13.55
2018-03-18T19:54:24.669Z,16.60
2018-03-18T19:56:51.034Z,14.00
2018-03-18T19:59:18.263Z,13.98
2018-03-18T20:01:45.292Z,15.27
2018-03-18T20:04:12.918Z,14.60
2018-03-18T20:06:39.221Z,16.62
2018-03-18T20:09:07.254Z,14.38
2018-03-18T20:11:33.513Z,13.62
2018-03-18T20:13:59.881Z,13.20
2018-03-18T20:16:26.270Z,15.55
2018-03-18T20:18:52.542Z,15.30
2018-03-18T20:21:19.708Z,14.25
2018-03-18T20:23:46.001Z,14.48
2018-03-18T20:26:12.670Z,15.93
2018-03-18T20:28:39.666Z,16.45
2018-03-18T20:31:06.781Z,15.63
2018-03-18T20:33:34.004Z,15.48
2018-03-18T20:36:00.307Z,16.17
2018-03-18T20:38:26.633Z,15.63
2018-03-18T20:40:52.911Z,14.85
2018-03-18T20:43:20.211Z,15.45
2018-03-18T20:45:47.256Z,16.45
2018-03-18T20:48:14.596Z,16.05
2018-03-18T20:50:40.934Z,17.80
2018-03-18T20:53:07.208Z,14.27
2018-03-18T20:55:33.507Z,17.50
2018-03-18T20:57:59.837Z,15.88
2018-03-18T21:00:26.110Z,17.35
2018-03-18T21:02:53.215Z,16.98
2018-03-18T21:05:20.300Z,15.88
2018-03-18T21:07:46.603Z,15.48
2018-03-18T21:10:12.884Z,14.60
2018-03-18T21:12:39.165Z,14.95
2018-03-18T21:15:05.479Z,15.27
2018-03-18T21:17:31.768Z,15.55
2018-03-18T21:19:58.075Z,16.70
2018-03-18T21:22:24.329Z,15.82
2018-03-18T21:24:50.609Z,15.90
2018-03-18T21:27:17.640Z,17.27
2018-03-18T21:29:43.943Z,15.77
2018-03-18T21:32:10.226Z,16.92
2018-03-18T21:34:37.366Z,16.33
2018-03-18T21:37:03.657Z,17.30
2018-03-18T21:39:30.647Z,14.60
2018-03-18T21:41:56.917Z,17.23
2018-03-18T21:44:23.164Z,16.00
2018-03-18T21:46:49.392Z,16.75
2018-03-18T21:49:15.618Z,15.48
2018-03-18T21:51:41.863Z,15.70
2018-03-18T21:54:08.103Z,15.23
2018-03-18T21:56:34.368Z,16.42
2018-03-18T21:59:00.611Z,15.25
2018-03-18T22:01:26.837Z,13.88
2018-03-18T22:03:53.077Z,14.60
2018-03-18T22:06:19.306Z,16.10
2018-03-18T22:08:45.529Z,14.20
2018-03-18T22:11:11.776Z,15.77
2018-03-18T22:13:38.051Z,16.48
2018-03-18T22:16:04.315Z,16.42
2018-03-18T22:18:30.547Z,15.10
2018-03-18T22:20:56.752Z,16.17
2018-03-18T22:23:22.979Z,14.63
2018-03-18T22:25:49.200Z,14.75
2018-03-18T22:28:15.444Z,14.65
2018-03-18T22:30:41.667Z,14.85
2018-03-18T22:33:08.637Z,14.80
2018-03-18T22:35:35.575Z,13.35
2018-03-18T22:38:02.562Z,13.82
2018-03-18T22:40:28.783Z,12.57
2018-03-18T22:42:55.786Z,13.68
2018-03-18T22:45:22.017Z,13.27
2018-03-18T22:47:48.248Z,13.32
2018-03-18T22:50:14.481Z,14.93
2018-03-18T22:52:40.698Z,14.07
2018-03-18T22:55:07.688Z,12.07
2018-03-18T22:57:33.904Z,13.07
2018-03-18T23:00:00.903Z,14.13
2018-03-18T23:02:27.114Z,12.95
2018-03-18T23:04:53.349Z,13.05
2018-03-18T23:07:19.632Z,12.20
2018-03-18T23:09:45.848Z,14.50
2018-03-18T23:12:12.108Z,13.25
2018-03-18T23:14:38.346Z,12.13
2018-03-18T23:17:04.584Z,12.45
2018-03-18T23:19:30.825Z,12.13
2018-03-18T23:21:57.046Z,10.13
2018-03-18T23:24:23.258Z,11.48
2018-03-18T23:26:50.198Z,12.40
2018-03-18T23:29:16.432Z,12.20
2018-03-18T23:31:42.644Z,13.32
2018-03-18T23:34:08.884Z,13.80
2018-03-18T23:36:35.849Z,13.98
2018-03-18T23:39:02.420Z,13.25
2018-03-18T23:41:28.666Z,12.82
2018-03-18T23:43:54.878Z,12.10
2018-03-18T23:46:21.113Z,12.57
2018-03-18T23:48:47.328Z,12.10
2018-03-18T23:51:13.557Z,11.70
2018-03-18T23:53:39.777Z,12.50
2018-03-18T23:56:07.023Z,12.55
2018-03-18T23:58:33.272Z,13.27
